sensor_id;sensor_type;location;lat;lon;timestamp;pressure;altitude;pressure_sealevel;temperature;humidity
8920;BME280;4495;42.644;23.274;2024-03-23T00:51:20;92992.00;;;2.80;49.61
8920;BME280;4495;42.644;23.274;2024-03-23T00:53:46;92989.78;;;2.74;50.67
8920;BME280;4495;42.644;23.274;2024-03-23T00:56:11;92984.91;;;2.72;50.68
8920;BME280;4495;42.644;23.274;2024-03-23T00:58:37;92983.34;;;2.71;51.96
8920;BME280;4495;42.644;23.274;2024-03-23T01:01:02;92984.75;;;2.58;52.62
8920;BME280;4495;42.644;23.274;2024-03-23T01:03:29;92987.63;;;2.52;52.41
8920;BME280;4495;42.644;23.274;2024-03-23T01:05:59;92978.56;;;2.59;52.58
8920;BME280;4495;42.644;23.274;2024-03-23T01:08:24;92979.63;;;2.58;50.09
8920;BME280;4495;42.644;23.274;2024-03-23T01:10:56;92975.28;;;2.54;48.97
8920;BME280;4495;42.644;23.274;2024-03-23T01:13:21;92969.66;;;2.52;49.15
8920;BME280;4495;42.644;23.274;2024-03-23T01:15:51;92971.41;;;2.56;50.00
8920;BME280;4495;42.644;23.274;2024-03-23T01:18:20;92975.34;;;2.43;49.81
8920;BME280;4495;42.644;23.274;2024-03-23T01:20:46;92976.19;;;2.34;50.70
8920;BME280;4495;42.644;23.274;2024-03-23T01:23:12;92972.78;;;2.43;50.87
8920;BME280;4495;42.644;23.274;2024-03-23T01:25:37;92974.94;;;2.26;50.95
8920;BME280;4495;42.644;23.274;2024-03-23T01:28:03;92971.41;;;2.17;49.06
8920;BME280;4495;42.644;23.274;2024-03-23T01:30:29;92973.66;;;2.23;48.57
8920;BME280;4495;42.644;23.274;2024-03-23T01:32:55;92970.81;;;2.30;49.46
8920;BME280;4495;42.644;23.274;2024-03-23T01:35:21;92966.63;;;2.39;49.50
8920;BME280;4495;42.644;23.274;2024-03-23T01:37:47;92976.38;;;2.42;50.07
8920;BME280;4495;42.644;23.274;2024-03-23T01:40:12;92978.47;;;2.40;50.85
8920;BME280;4495;42.644;23.274;2024-03-23T01:42:41;92977.41;;;2.41;50.75
8920;BME280;4495;42.644;23.274;2024-03-23T01:45:07;92972.53;;;2.40;49.54
8920;BME280;4495;42.644;23.274;2024-03-23T01:47:33;92979.81;;;2.27;49.49
8920;BME280;4495;42.644;23.274;2024-03-23T01:49:59;92972.88;;;2.28;51.28
8920;BME280;4495;42.644;23.274;2024-03-23T01:52:25;92975.72;;;2.26;50.80
8920;BME280;4495;42.644;23.274;2024-03-23T01:54:50;92973.72;;;2.18;51.52
8920;BME280;4495;42.644;23.274;2024-03-23T01:57:16;92973.25;;;2.11;52.49
8920;BME280;4495;42.644;23.274;2024-03-23T01:59:42;92971.47;;;2.06;50.90
8920;BME280;4495;42.644;23.274;2024-03-23T02:02:08;92967.44;;;1.90;51.81
8920;BME280;4495;42.644;23.274;2024-03-23T02:04:33;92963.31;;;1.94;51.92
8920;BME280;4495;42.644;23.274;2024-03-23T02:06:58;92967.41;;;2.00;50.09
8920;BME280;4495;42.644;23.274;2024-03-23T02:09:24;92969.63;;;2.12;50.55
8920;BME280;4495;42.644;23.274;2024-03-23T02:11:50;92966.06;;;2.08;52.47
8920;BME280;4495;42.644;23.274;2024-03-23T02:14:15;92964.81;;;2.05;51.19
8920;BME280;4495;42.644;23.274;2024-03-23T02:16:41;92973.25;;;2.11;51.91
8920;BME280;4495;42.644;23.274;2024-03-23T02:19:08;92975.09;;;2.00;52.79
8920;BME280;4495;42.644;23.274;2024-03-23T02:21:33;92982.03;;;1.95;53.60
8920;BME280;4495;42.644;23.274;2024-03-23T02:24:00;92984.03;;;2.08;53.49
8920;BME280;4495;42.644;23.274;2024-03-23T02:26:25;92978.09;;;2.13;52.69
8920;BME280;4495;42.644;23.274;2024-03-23T02:28:51;92986.28;;;2.15;51.27
8920;BME280;4495;42.644;23.274;2024-03-23T02:31:16;92976.91;;;2.00;53.50
8920;BME280;4495;42.644;23.274;2024-03-23T02:33:42;92979.47;;;2.00;53.63
8920;BME280;4495;42.644;23.274;2024-03-23T02:36:07;92981.53;;;1.93;53.73
8920;BME280;4495;42.644;23.274;2024-03-23T02:38:32;92972.56;;;1.90;52.25
8920;BME280;4495;42.644;23.274;2024-03-23T02:41:04;92965.84;;;1.99;51.87
8920;BME280;4495;42.644;23.274;2024-03-23T02:43:29;92970.00;;;1.95;50.97
8920;BME280;4495;42.644;23.274;2024-03-23T02:45:55;92968.47;;;1.89;52.52
8920;BME280;4495;42.644;23.274;2024-03-23T02:48:20;92967.50;;;1.80;52.63
8920;BME280;4495;42.644;23.274;2024-03-23T02:50:46;92973.66;;;1.84;53.90
8920;BME280;4495;42.644;23.274;2024-03-23T02:53:11;92960.53;;;1.91;54.03
8920;BME280;4495;42.644;23.274;2024-03-23T02:55:36;92965.34;;;1.97;53.02
8920;BME280;4495;42.644;23.274;2024-03-23T02:58:02;92968.72;;;1.93;54.70
8920;BME280;4495;42.644;23.274;2024-03-23T03:00:28;92962.06;;;1.92;53.71
8920;BME280;4495;42.644;23.274;2024-03-23T03:02:53;92964.66;;;1.81;55.08
8920;BME280;4495;42.644;23.274;2024-03-23T03:05:19;92965.66;;;1.91;54.82
8920;BME280;4495;42.644;23.274;2024-03-23T03:07:44;92965.38;;;1.92;55.84
8920;BME280;4495;42.644;23.274;2024-03-23T03:10:10;92964.63;;;1.92;55.20
8920;BME280;4495;42.644;23.274;2024-03-23T03:12:37;92960.31;;;1.82;55.17
8920;BME280;4495;42.644;23.274;2024-03-23T03:15:06;92967.97;;;1.87;54.88
8920;BME280;4495;42.644;23.274;2024-03-23T03:17:31;92976.97;;;1.84;56.30
8920;BME280;4495;42.644;23.274;2024-03-23T03:19:57;92966.22;;;1.82;55.74
8920;BME280;4495;42.644;23.274;2024-03-23T03:22:22;92966.13;;;1.93;57.44
8920;BME280;4495;42.644;23.274;2024-03-23T03:24:49;92969.25;;;1.90;56.93
8920;BME280;4495;42.644;23.274;2024-03-23T03:27:14;92971.09;;;1.84;55.70
8920;BME280;4495;42.644;23.274;2024-03-23T03:29:40;92963.97;;;1.71;57.35
8920;BME280;4495;42.644;23.274;2024-03-23T03:32:05;92972.16;;;1.67;56.45
8920;BME280;4495;42.644;23.274;2024-03-23T03:34:31;92968.03;;;1.72;55.78
8920;BME280;4495;42.644;23.274;2024-03-23T03:36:57;92967.03;;;1.67;57.01
8920;BME280;4495;42.644;23.274;2024-03-23T03:39:24;92963.47;;;1.69;56.88
8920;BME280;4495;42.644;23.274;2024-03-23T03:41:49;92967.03;;;1.67;57.08
8920;BME280;4495;42.644;23.274;2024-03-23T03:44:16;92961.44;;;1.60;57.83
8920;BME280;4495;42.644;23.274;2024-03-23T03:46:41;92969.88;;;1.61;58.14
8920;BME280;4495;42.644;23.274;2024-03-23T03:49:06;92966.06;;;1.53;58.30
8920;BME280;4495;42.644;23.274;2024-03-23T03:51:32;92964.53;;;1.57;57.32
8920;BME280;4495;42.644;23.274;2024-03-23T03:53:57;92975.28;;;1.54;57.03
8920;BME280;4495;42.644;23.274;2024-03-23T03:56:23;92965.06;;;1.49;58.10
8920;BME280;4495;42.644;23.274;2024-03-23T03:58:48;92961.22;;;1.47;58.56
8920;BME280;4495;42.644;23.274;2024-03-23T04:01:14;92966.09;;;1.43;60.03
8920;BME280;4495;42.644;23.274;2024-03-23T04:03:39;92968.19;;;1.36;60.54
8920;BME280;4495;42.644;23.274;2024-03-23T04:06:09;92973.28;;;1.41;58.08
8920;BME280;4495;42.644;23.274;2024-03-23T04:08:34;92966.38;;;1.36;59.53
8920;BME280;4495;42.644;23.274;2024-03-23T04:11:00;92970.75;;;1.31;60.82
8920;BME280;4495;42.644;23.274;2024-03-23T04:13:25;92974.56;;;1.38;60.83
8920;BME280;4495;42.644;23.274;2024-03-23T04:15:56;92976.63;;;1.41;60.65
8920;BME280;4495;42.644;23.274;2024-03-23T04:18:22;92973.78;;;1.43;61.09
8920;BME280;4495;42.644;23.274;2024-03-23T04:20:51;92974.06;;;1.36;60.98
8920;BME280;4495;42.644;23.274;2024-03-23T04:23:17;92972.03;;;1.33;61.54
8920;BME280;4495;42.644;23.274;2024-03-23T04:25:42;92979.75;;;1.28;61.21
8920;BME280;4495;42.644;23.274;2024-03-23T04:28:07;92974.88;;;1.27;62.26
8920;BME280;4495;42.644;23.274;2024-03-23T04:30:33;92979.22;;;1.26;61.13
8920;BME280;4495;42.644;23.274;2024-03-23T04:32:59;92977.19;;;1.28;62.44
8920;BME280;4495;42.644;23.274;2024-03-23T04:35:24;92982.03;;;1.35;62.31
8920;BME280;4495;42.644;23.274;2024-03-23T04:37:51;92979.97;;;1.37;61.21
8920;BME280;4495;42.644;23.274;2024-03-23T04:40:21;92982.03;;;1.35;62.39
8920;BME280;4495;42.644;23.274;2024-03-23T04:42:46;92980.97;;;1.41;60.81
8920;BME280;4495;42.644;23.274;2024-03-23T04:45:11;92979.41;;;1.45;61.44
8920;BME280;4495;42.644;23.274;2024-03-23T04:47:40;92977.84;;;1.54;61.26
8920;BME280;4495;42.644;23.274;2024-03-23T04:50:06;92983.47;;;1.56;60.99
8920;BME280;4495;42.644;23.274;2024-03-23T04:52:31;92987.59;;;1.57;61.85
8920;BME280;4495;42.644;23.274;2024-03-23T04:54:56;92987.31;;;1.64;60.83
8920;BME280;4495;42.644;23.274;2024-03-23T04:57:22;92988.31;;;1.73;59.28
8920;BME280;4495;42.644;23.274;2024-03-23T04:59:48;92985.47;;;1.80;59.30
8920;BME280;4495;42.644;23.274;2024-03-23T05:02:14;92994.34;;;1.93;60.29
8920;BME280;4495;42.644;23.274;2024-03-23T05:04:40;92993.09;;;1.90;60.90
8920;BME280;4495;42.644;23.274;2024-03-23T05:07:08;92986.66;;;1.98;59.56
8920;BME280;4495;42.644;23.274;2024-03-23T05:09:34;92987.16;;;2.00;59.64
8920;BME280;4495;42.644;23.274;2024-03-23T05:12:00;92985.88;;;1.97;61.97
8920;BME280;4495;42.644;23.274;2024-03-23T05:14:26;92986.09;;;2.06;60.54
8920;BME280;4495;42.644;23.274;2024-03-23T05:16:52;92985.78;;;2.18;60.27
8920;BME280;4495;42.644;23.274;2024-03-23T05:19:17;92981.06;;;2.30;60.64
8920;BME280;4495;42.644;23.274;2024-03-23T05:21:43;92981.56;;;2.32;58.97
8920;BME280;4495;42.644;23.274;2024-03-23T05:24:08;92979.94;;;2.46;58.97
8920;BME280;4495;42.644;23.274;2024-03-23T05:26:34;92975.78;;;2.56;58.61
8920;BME280;4495;42.644;23.274;2024-03-23T05:29:00;92980.28;;;2.69;59.30
8920;BME280;4495;42.644;23.274;2024-03-23T05:31:27;92983.09;;;2.73;59.74
8920;BME280;4495;42.644;23.274;2024-03-23T05:33:53;92979.75;;;2.72;60.08
8920;BME280;4495;42.644;23.274;2024-03-23T05:36:18;92975.94;;;2.64;59.42
8920;BME280;4495;42.644;23.274;2024-03-23T05:38:44;92977.25;;;2.67;58.54
8920;BME280;4495;42.644;23.274;2024-03-23T05:41:10;92978.56;;;2.59;61.60
8920;BME280;4495;42.644;23.274;2024-03-23T05:43:35;92978.53;;;2.64;60.14
8920;BME280;4495;42.644;23.274;2024-03-23T05:46:00;92991.97;;;2.51;60.64
8920;BME280;4495;42.644;23.274;2024-03-23T05:48:33;92988.88;;;2.54;60.02
8920;BME280;4495;42.644;23.274;2024-03-23T05:50:58;92994.94;;;2.68;58.82
8920;BME280;4495;42.644;23.274;2024-03-23T05:53:24;92983.28;;;2.81;58.50
8920;BME280;4495;42.644;23.274;2024-03-23T05:55:51;92985.34;;;2.79;58.21
8920;BME280;4495;42.644;23.274;2024-03-23T05:58:18;92991.25;;;3.09;59.01
8920;BME280;4495;42.644;23.274;2024-03-23T06:00:45;92985.44;;;3.27;59.60
8920;BME280;4495;42.644;23.274;2024-03-23T06:03:12;92979.34;;;3.18;60.47
8920;BME280;4495;42.644;23.274;2024-03-23T06:05:37;92988.19;;;3.07;59.62
8920;BME280;4495;42.644;23.274;2024-03-23T06:08:03;92985.03;;;3.15;59.77
8920;BME280;4495;42.644;23.274;2024-03-23T06:10:29;92983.25;;;3.40;59.36
8920;BME280;4495;42.644;23.274;2024-03-23T06:12:55;92984.34;;;3.33;58.57
8920;BME280;4495;42.644;23.274;2024-03-23T06:15:21;92980.78;;;3.29;59.20
8920;BME280;4495;42.644;23.274;2024-03-23T06:17:48;92987.13;;;3.37;59.14
8920;BME280;4495;42.644;23.274;2024-03-23T06:20:13;92972.81;;;3.55;58.15
8920;BME280;4495;42.644;23.274;2024-03-23T06:22:39;92978.63;;;3.66;58.17
8920;BME280;4495;42.644;23.274;2024-03-23T06:25:05;92981.81;;;3.77;57.37
8920;BME280;4495;42.644;23.274;2024-03-23T06:27:32;92978.81;;;3.69;55.76
8920;BME280;4495;42.644;23.274;2024-03-23T06:30:00;92976.78;;;3.90;56.77
8920;BME280;4495;42.644;23.274;2024-03-23T06:32:27;92975.22;;;3.89;57.30
8920;BME280;4495;42.644;23.274;2024-03-23T06:34:54;92987.50;;;3.98;57.23
8920;BME280;4495;42.644;23.274;2024-03-23T06:37:20;92979.13;;;4.06;56.73
8920;BME280;4495;42.644;23.274;2024-03-23T06:39:46;92981.72;;;4.25;57.67
8920;BME280;4495;42.644;23.274;2024-03-23T06:42:12;92980.97;;;4.43;56.59
8920;BME280;4495;42.644;23.274;2024-03-23T06:44:38;92982.22;;;4.27;56.53
8920;BME280;4495;42.644;23.274;2024-03-23T06:47:04;92985.63;;;4.41;58.16
8920;BME280;4495;42.644;23.274;2024-03-23T06:49:29;92983.66;;;4.52;57.54
8920;BME280;4495;42.644;23.274;2024-03-23T06:51:54;92984.19;;;4.68;56.44
8920;BME280;4495;42.644;23.274;2024-03-23T06:54:20;92983.50;;;4.81;57.67
8920;BME280;4495;42.644;23.274;2024-03-23T06:56:45;92980.94;;;4.95;55.85
8920;BME280;4495;42.644;23.274;2024-03-23T06:59:11;92979.81;;;5.01;56.99
8920;BME280;4495;42.644;23.274;2024-03-23T07:01:37;92984.97;;;5.01;56.20
8920;BME280;4495;42.644;23.274;2024-03-23T07:04:02;92987.47;;;5.06;57.10
8920;BME280;4495;42.644;23.274;2024-03-23T07:06:29;92976.78;;;5.13;55.05
8920;BME280;4495;42.644;23.274;2024-03-23T07:08:55;92975.03;;;4.94;56.34
8920;BME280;4495;42.644;23.274;2024-03-23T07:11:22;92979.28;;;5.18;54.98
8920;BME280;4495;42.644;23.274;2024-03-23T07:13:51;92972.06;;;5.34;54.78
8920;BME280;4495;42.644;23.274;2024-03-23T07:16:17;92975.88;;;5.50;57.38
8920;BME280;4495;42.644;23.274;2024-03-23T07:18:43;92963.63;;;5.42;55.40
8920;BME280;4495;42.644;23.274;2024-03-23T07:21:08;92962.28;;;5.17;55.81
8920;BME280;4495;42.644;23.274;2024-03-23T07:23:34;92964.81;;;5.36;56.38
8920;BME280;4495;42.644;23.274;2024-03-23T07:26:01;92961.53;;;5.58;56.51
8920;BME280;4495;42.644;23.274;2024-03-23T07:28:27;92960.50;;;5.59;55.27
8920;BME280;4495;42.644;23.274;2024-03-23T07:31:09;92964.31;;;5.34;54.62
8920;BME280;4495;42.644;23.274;2024-03-23T07:33:36;92956.84;;;5.60;54.98
8920;BME280;4495;42.644;23.274;2024-03-23T07:36:01;92957.88;;;5.87;55.21
8920;BME280;4495;42.644;23.274;2024-03-23T07:38:30;92964.28;;;6.03;55.53
8920;BME280;4495;42.644;23.274;2024-03-23T07:41:07;92960.56;;;6.09;53.70
8920;BME280;4495;42.644;23.274;2024-03-23T07:43:32;92956.53;;;6.17;54.40
8920;BME280;4495;42.644;23.274;2024-03-23T07:45:58;92958.00;;;5.95;54.29
8920;BME280;4495;42.644;23.274;2024-03-23T07:48:24;92961.09;;;6.20;53.21
8920;BME280;4495;42.644;23.274;2024-03-23T07:51:07;92957.66;;;6.24;53.90
8920;BME280;4495;42.644;23.274;2024-03-23T07:53:34;92953.09;;;6.21;52.54
8920;BME280;4495;42.644;23.274;2024-03-23T07:58:28;92956.56;;;6.39;53.00
8920;BME280;4495;42.644;23.274;2024-03-23T08:01:06;92947.94;;;6.66;52.73
8920;BME280;4495;42.644;23.274;2024-03-23T08:03:38;92956.53;;;6.76;52.39
8920;BME280;4495;42.644;23.274;2024-03-23T08:06:12;92956.69;;;7.02;53.34
8920;BME280;4495;42.644;23.274;2024-03-23T08:08:39;92959.09;;;6.98;53.12
8920;BME280;4495;42.644;23.274;2024-03-23T08:11:05;92959.69;;;6.95;51.88
8920;BME280;4495;42.644;23.274;2024-03-23T08:13:31;92956.00;;;7.19;51.33
8920;BME280;4495;42.644;23.274;2024-03-23T08:16:01;92960.03;;;7.34;51.43
8920;BME280;4495;42.644;23.274;2024-03-23T08:18:27;92947.78;;;7.57;50.32
8920;BME280;4495;42.644;23.274;2024-03-23T08:21:02;92946.31;;;7.82;50.16
8920;BME280;4495;42.644;23.274;2024-03-23T08:23:29;92947.97;;;7.69;49.01
8920;BME280;4495;42.644;23.274;2024-03-23T08:25:58;92939.91;;;7.79;51.11
8920;BME280;4495;42.644;23.274;2024-03-23T08:28:25;92948.06;;;8.12;51.38
8920;BME280;4495;42.644;23.274;2024-03-23T08:30:50;92947.63;;;8.37;50.70
8920;BME280;4495;42.644;23.274;2024-03-23T08:33:16;92941.34;;;8.20;47.49
8920;BME280;4495;42.644;23.274;2024-03-23T08:35:42;92947.75;;;8.31;48.39
8920;BME280;4495;42.644;23.274;2024-03-23T08:38:08;92937.25;;;8.54;47.54
8920;BME280;4495;42.644;23.274;2024-03-23T08:40:34;92942.75;;;8.70;47.14
8920;BME280;4495;42.644;23.274;2024-03-23T08:42:59;92938.34;;;8.79;46.62
8920;BME280;4495;42.644;23.274;2024-03-23T08:45:25;92933.91;;;8.62;47.49
8920;BME280;4495;42.644;23.274;2024-03-23T08:47:51;92935.75;;;8.79;47.79
8920;BME280;4495;42.644;23.274;2024-03-23T08:50:16;92924.09;;;9.03;49.20
8920;BME280;4495;42.644;23.274;2024-03-23T08:52:42;92926.34;;;9.22;46.40
8920;BME280;4495;42.644;23.274;2024-03-23T08:55:07;92924.03;;;9.20;45.61
8920;BME280;4495;42.644;23.274;2024-03-23T08:57:35;92916.50;;;8.80;45.37
8920;BME280;4495;42.644;23.274;2024-03-23T09:00:00;92921.53;;;8.85;45.53
8920;BME280;4495;42.644;23.274;2024-03-23T09:02:26;92918.09;;;9.20;46.83
8920;BME280;4495;42.644;23.274;2024-03-23T09:04:52;92919.50;;;9.47;46.34
8920;BME280;4495;42.644;23.274;2024-03-23T09:07:17;92919.84;;;9.36;43.47
8920;BME280;4495;42.644;23.274;2024-03-23T09:09:42;92907.78;;;9.41;44.52
8920;BME280;4495;42.644;23.274;2024-03-23T09:12:08;92905.56;;;9.60;44.45
8920;BME280;4495;42.644;23.274;2024-03-23T09:14:34;92909.31;;;9.71;43.42
8920;BME280;4495;42.644;23.274;2024-03-23T09:16:59;92904.19;;;9.84;42.87
8920;BME280;4495;42.644;23.274;2024-03-23T09:19:28;92899.44;;;9.86;43.03
8920;BME280;4495;42.644;23.274;2024-03-23T09:21:53;92898.03;;;10.18;43.64
8920;BME280;4495;42.644;23.274;2024-03-23T09:24:19;92890.91;;;10.27;42.96
8920;BME280;4495;42.644;23.274;2024-03-23T09:26:44;92886.03;;;10.47;41.19
8920;BME280;4495;42.644;23.274;2024-03-23T09:29:09;92890.09;;;10.35;39.10
8920;BME280;4495;42.644;23.274;2024-03-23T09:31:35;92888.47;;;10.64;42.52
8920;BME280;4495;42.644;23.274;2024-03-23T09:34:01;92877.03;;;10.65;39.69
8920;BME280;4495;42.644;23.274;2024-03-23T09:36:26;92879.63;;;10.77;39.73
8920;BME280;4495;42.644;23.274;2024-03-23T09:38:52;92866.31;;;10.79;38.90
8920;BME280;4495;42.644;23.274;2024-03-23T09:41:17;92868.41;;;10.98;38.93
8920;BME280;4495;42.644;23.274;2024-03-23T09:43:43;92872.28;;;10.92;38.59
8920;BME280;4495;42.644;23.274;2024-03-23T09:46:08;92866.47;;;11.07;39.80
8920;BME280;4495;42.644;23.274;2024-03-23T09:48:34;92859.75;;;11.18;39.18
8920;BME280;4495;42.644;23.274;2024-03-23T09:51:02;92858.88;;;11.02;38.16
8920;BME280;4495;42.644;23.274;2024-03-23T09:53:27;92846.31;;;11.16;39.44
8920;BME280;4495;42.644;23.274;2024-03-23T09:55:53;92850.78;;;11.28;38.05
8920;BME280;4495;42.644;23.274;2024-03-23T09:58:18;92847.31;;;11.24;39.35
8920;BME280;4495;42.644;23.274;2024-03-23T10:00:44;92839.16;;;11.38;39.23
8920;BME280;4495;42.644;23.274;2024-03-23T10:03:10;92835.69;;;11.46;38.37
8920;BME280;4495;42.644;23.274;2024-03-23T10:05:36;92833.81;;;11.59;36.72
8920;BME280;4495;42.644;23.274;2024-03-23T10:10:43;92835.09;;;11.90;36.88
8920;BME280;4495;42.644;23.274;2024-03-23T10:13:09;92825.91;;;11.68;37.28
8920;BME280;4495;42.644;23.274;2024-03-23T10:15:35;92822.84;;;11.78;39.19
8920;BME280;4495;42.644;23.274;2024-03-23T10:18:20;92823.63;;;11.91;38.46
8920;BME280;4495;42.644;23.274;2024-03-23T10:21:10;92817.72;;;11.94;37.38
8920;BME280;4495;42.644;23.274;2024-03-23T10:23:37;92808.97;;;12.14;36.87
8920;BME280;4495;42.644;23.274;2024-03-23T10:28:56;92798.97;;;12.44;35.12
8920;BME280;4495;42.644;23.274;2024-03-23T10:31:30;92797.88;;;12.45;36.12
8920;BME280;4495;42.644;23.274;2024-03-23T10:33:55;92796.03;;;12.62;34.06
8920;BME280;4495;42.644;23.274;2024-03-23T10:36:24;92795.09;;;12.10;34.72
8920;BME280;4495;42.644;23.274;2024-03-23T10:38:54;92782.13;;;11.98;33.71
8920;BME280;4495;42.644;23.274;2024-03-23T10:41:19;92785.66;;;12.05;35.18
8920;BME280;4495;42.644;23.274;2024-03-23T10:43:46;92779.06;;;12.24;33.83
8920;BME280;4495;42.644;23.274;2024-03-23T10:46:12;92771.75;;;12.58;35.05
8920;BME280;4495;42.644;23.274;2024-03-23T10:48:38;92767.19;;;12.55;33.48
8920;BME280;4495;42.644;23.274;2024-03-23T10:51:05;92767.72;;;12.76;33.45
8920;BME280;4495;42.644;23.274;2024-03-23T10:53:34;92759.13;;;12.92;32.34
8920;BME280;4495;42.644;23.274;2024-03-23T10:56:00;92758.84;;;13.13;34.06
8920;BME280;4495;42.644;23.274;2024-03-23T10:58:39;92750.91;;;13.25;33.33
8920;BME280;4495;42.644;23.274;2024-03-23T11:01:05;92745.78;;;13.28;33.43
8920;BME280;4495;42.644;23.274;2024-03-23T11:03:35;92744.72;;;13.49;31.63
8920;BME280;4495;42.644;23.274;2024-03-23T11:06:02;92739.59;;;13.52;31.43
8920;BME280;4495;42.644;23.274;2024-03-23T11:08:36;92735.66;;;13.62;32.82
8920;BME280;4495;42.644;23.274;2024-03-23T11:11:20;92725.31;;;13.30;31.43
8920;BME280;4495;42.644;23.274;2024-03-23T11:13:53;92719.97;;;13.27;31.46
8920;BME280;4495;42.644;23.274;2024-03-23T11:16:23;92711.53;;;13.69;33.01
8920;BME280;4495;42.644;23.274;2024-03-23T11:18:51;92718.97;;;14.06;31.03
8920;BME280;4495;42.644;23.274;2024-03-23T11:21:54;92718.28;;;14.09;31.13
8920;BME280;4495;42.644;23.274;2024-03-23T11:24:21;92704.88;;;14.33;31.32
8920;BME280;4495;42.644;23.274;2024-03-23T11:26:50;92698.28;;;14.63;30.83
8920;BME280;4495;42.644;23.274;2024-03-23T11:29:17;92697.63;;;14.69;30.91
8920;BME280;4495;42.644;23.274;2024-03-23T11:31:50;92689.72;;;14.89;31.06
8920;BME280;4495;42.644;23.274;2024-03-23T11:34:16;92685.47;;;14.81;30.04
8920;BME280;4495;42.644;23.274;2024-03-23T11:36:46;92694.91;;;15.42;28.78
8920;BME280;4495;42.644;23.274;2024-03-23T11:39:15;92682.72;;;15.84;26.94
8920;BME280;4495;42.644;23.274;2024-03-23T11:41:56;92675.78;;;15.68;26.59
8920;BME280;4495;42.644;23.274;2024-03-23T11:44:23;92665.41;;;16.13;26.44
8920;BME280;4495;42.644;23.274;2024-03-23T11:46:49;92662.94;;;16.31;25.82
8920;BME280;4495;42.644;23.274;2024-03-23T11:49:25;92668.16;;;17.31;23.56
8920;BME280;4495;42.644;23.274;2024-03-23T11:51:52;92660.09;;;17.68;21.97
8920;BME280;4495;42.644;23.274;2024-03-23T11:56:57;92645.13;;;19.51;20.39
8920;BME280;4495;42.644;23.274;2024-03-23T11:59:37;92643.66;;;19.32;20.57
8920;BME280;4495;42.644;23.274;2024-03-23T12:02:12;92634.25;;;20.20;19.77
8920;BME280;4495;42.644;23.274;2024-03-23T12:04:41;92637.38;;;20.04;19.32
8920;BME280;4495;42.644;23.274;2024-03-23T12:07:17;92629.84;;;21.45;17.13
8920;BME280;4495;42.644;23.274;2024-03-23T12:10:19;92623.75;;;22.87;16.07
8920;BME280;4495;42.644;23.274;2024-03-23T12:12:44;92620.94;;;23.61;15.15
8920;BME280;4495;42.644;23.274;2024-03-23T12:15:10;92614.00;;;23.28;14.16
8920;BME280;4495;42.644;23.274;2024-03-23T12:17:38;92612.34;;;23.74;14.15
8920;BME280;4495;42.644;23.274;2024-03-23T12:20:04;92611.88;;;21.63;15.29
8920;BME280;4495;42.644;23.274;2024-03-23T12:22:30;92600.97;;;20.37;15.94
8920;BME280;4495;42.644;23.274;2024-03-23T12:24:56;92603.38;;;20.17;15.97
8920;BME280;4495;42.644;23.274;2024-03-23T12:27:23;92605.19;;;19.46;16.86
8920;BME280;4495;42.644;23.274;2024-03-23T12:29:48;92589.56;;;17.95;16.92
8920;BME280;4495;42.644;23.274;2024-03-23T12:32:14;92588.34;;;17.64;18.41
8920;BME280;4495;42.644;23.274;2024-03-23T12:34:41;92589.50;;;16.82;18.40
8920;BME280;4495;42.644;23.274;2024-03-23T12:37:06;92569.78;;;17.21;19.23
8920;BME280;4495;42.644;23.274;2024-03-23T12:39:32;92580.25;;;17.07;19.51
8920;BME280;4495;42.644;23.274;2024-03-23T12:41:57;92569.66;;;16.92;20.71
8920;BME280;4495;42.644;23.274;2024-03-23T12:44:23;92566.16;;;16.74;20.47
8920;BME280;4495;42.644;23.274;2024-03-23T12:46:48;92566.72;;;17.08;20.30
8920;BME280;4495;42.644;23.274;2024-03-23T12:49:14;92566.91;;;17.55;18.91
8920;BME280;4495;42.644;23.274;2024-03-23T12:51:39;92569.16;;;17.56;18.63
8920;BME280;4495;42.644;23.274;2024-03-23T12:54:11;92560.91;;;17.69;18.93
8920;BME280;4495;42.644;23.274;2024-03-23T12:56:36;92549.28;;;17.73;18.99
8920;BME280;4495;42.644;23.274;2024-03-23T12:59:02;92545.31;;;16.99;19.42
8920;BME280;4495;42.644;23.274;2024-03-23T13:01:27;92539.34;;;17.13;19.11
8920;BME280;4495;42.644;23.274;2024-03-23T13:03:52;92539.59;;;16.82;19.69
8920;BME280;4495;42.644;23.274;2024-03-23T13:06:18;92540.16;;;16.51;19.27
8920;BME280;4495;42.644;23.274;2024-03-23T13:08:47;92540.25;;;16.72;20.80
8920;BME280;4495;42.644;23.274;2024-03-23T13:11:15;92535.19;;;16.97;19.17
8920;BME280;4495;42.644;23.274;2024-03-23T13:13:41;92536.09;;;17.48;18.11
8920;BME280;4495;42.644;23.274;2024-03-23T13:16:07;92534.88;;;17.24;17.66
8920;BME280;4495;42.644;23.274;2024-03-23T13:18:32;92530.88;;;17.66;18.95
8920;BME280;4495;42.644;23.274;2024-03-23T13:20:59;92522.69;;;18.11;17.76
8920;BME280;4495;42.644;23.274;2024-03-23T13:23:24;92520.22;;;19.20;18.08
8920;BME280;4495;42.644;23.274;2024-03-23T13:25:54;92523.41;;;18.47;17.92
8920;BME280;4495;42.644;23.274;2024-03-23T13:28:20;92515.00;;;19.87;16.39
8920;BME280;4495;42.644;23.274;2024-03-23T13:30:53;92523.75;;;20.25;16.82
8920;BME280;4495;42.644;23.274;2024-03-23T13:33:18;92523.25;;;20.38;16.52
8920;BME280;4495;42.644;23.274;2024-03-23T13:35:54;92518.56;;;20.60;16.86
8920;BME280;4495;42.644;23.274;2024-03-23T13:38:22;92517.28;;;20.30;16.22
8920;BME280;4495;42.644;23.274;2024-03-23T13:40:56;92518.38;;;19.87;17.28
8920;BME280;4495;42.644;23.274;2024-03-23T13:43:23;92510.41;;;19.21;17.83
8920;BME280;4495;42.644;23.274;2024-03-23T13:45:51;92500.31;;;19.08;18.12
8920;BME280;4495;42.644;23.274;2024-03-23T13:48:19;92500.47;;;18.44;18.55
8920;BME280;4495;42.644;23.274;2024-03-23T13:50:45;92492.59;;;18.15;18.67
8920;BME280;4495;42.644;23.274;2024-03-23T13:53:13;92495.44;;;17.10;19.47
8920;BME280;4495;42.644;23.274;2024-03-23T13:55:45;92494.53;;;16.73;21.14
8920;BME280;4495;42.644;23.274;2024-03-23T13:58:11;92486.19;;;16.53;21.18
8920;BME280;4495;42.644;23.274;2024-03-23T14:00:37;92485.13;;;16.72;20.24
8920;BME280;4495;42.644;23.274;2024-03-23T14:03:03;92489.84;;;16.38;20.78
8920;BME280;4495;42.644;23.274;2024-03-23T14:05:28;92482.66;;;15.76;22.37
8920;BME280;4495;42.644;23.274;2024-03-23T14:07:53;92477.84;;;15.44;22.13
8920;BME280;4495;42.644;23.274;2024-03-23T14:10:19;92481.72;;;15.54;21.59
8920;BME280;4495;42.644;23.274;2024-03-23T14:12:44;92473.13;;;15.57;21.39
8920;BME280;4495;42.644;23.274;2024-03-23T14:15:09;92470.72;;;15.78;22.22
8920;BME280;4495;42.644;23.274;2024-03-23T14:17:35;92466.22;;;15.83;21.43